sensor_id;sensor_type;location;lat;lon;timestamp;P1;durP1;ratioP1;P2;durP2;ratioP2
74658;SDS011;63186;51.204;6.536;2024-03-23T00:52:43;11.25;;;3.53;;
74658;SDS011;63186;51.204;6.536;2024-03-23T00:55:10;4.80;;;1.70;;
74658;SDS011;63186;51.204;6.536;2024-03-23T00:57:36;5.47;;;1.88;;
74658;SDS011;63186;51.204;6.536;2024-03-23T01:00:01;8.87;;;2.30;;
74658;SDS011;63186;51.204;6.536;2024-03-23T01:02:27;4.57;;;1.65;;
74658;SDS011;63186;51.204;6.536;2024-03-23T01:04:52;5.63;;;1.47;;
74658;SDS011;63186;51.204;6.536;2024-03-23T01:07:17;4.20;;;1.83;;
74658;SDS011;63186;51.204;6.536;2024-03-23T01:09:43;7.10;;;1.87;;
74658;SDS011;63186;51.204;6.536;2024-03-23T01:12:08;5.82;;;1.73;;
74658;SDS011;63186;51.204;6.536;2024-03-23T01:14:34;6.05;;;2.22;;
74658;SDS011;63186;51.204;6.536;2024-03-23T01:17:01;5.45;;;1.58;;
74658;SDS011;63186;51.204;6.536;2024-03-23T01:19:26;4.70;;;2.50;;
74658;SDS011;63186;51.204;6.536;2024-03-23T01:21:52;6.90;;;2.03;;
74658;SDS011;63186;51.204;6.536;2024-03-23T01:24:17;6.97;;;1.60;;
74658;SDS011;63186;51.204;6.536;2024-03-23T01:26:42;6.27;;;2.10;;
74658;SDS011;63186;51.204;6.536;2024-03-23T01:29:08;5.97;;;1.80;;
74658;SDS011;63186;51.204;6.536;2024-03-23T01:31:33;3.50;;;1.30;;
74658;SDS011;63186;51.204;6.536;2024-03-23T01:33:58;7.80;;;2.10;;
74658;SDS011;63186;51.204;6.536;2024-03-23T01:36:23;5.23;;;1.30;;
74658;SDS011;63186;51.204;6.536;2024-03-23T01:38:49;7.40;;;1.90;;
74658;SDS011;63186;51.204;6.536;2024-03-23T01:41:14;7.63;;;1.83;;
74658;SDS011;63186;51.204;6.536;2024-03-23T01:43:40;3.53;;;1.70;;
74658;SDS011;63186;51.204;6.536;2024-03-23T01:46:06;4.57;;;1.20;;
74658;SDS011;63186;51.204;6.536;2024-03-23T01:48:31;5.07;;;1.35;;
74658;SDS011;63186;51.204;6.536;2024-03-23T01:50:57;6.60;;;1.58;;
74658;SDS011;63186;51.204;6.536;2024-03-23T01:53:23;2.85;;;1.23;;
74658;SDS011;63186;51.204;6.536;2024-03-23T01:55:50;5.30;;;1.52;;
74658;SDS011;63186;51.204;6.536;2024-03-23T01:58:16;4.78;;;1.50;;
74658;SDS011;63186;51.204;6.536;2024-03-23T02:00:41;4.27;;;1.70;;
74658;SDS011;63186;51.204;6.536;2024-03-23T02:03:28;4.18;;;1.35;;
74658;SDS011;63186;51.204;6.536;2024-03-23T02:05:53;6.93;;;1.75;;
74658;SDS011;63186;51.204;6.536;2024-03-23T02:08:20;2.28;;;1.05;;
74658;SDS011;63186;51.204;6.536;2024-03-23T02:10:46;5.13;;;1.40;;
74658;SDS011;63186;51.204;6.536;2024-03-23T02:13:13;3.30;;;1.52;;
74658;SDS011;63186;51.204;6.536;2024-03-23T02:15:39;5.35;;;1.38;;
74658;SDS011;63186;51.204;6.536;2024-03-23T02:18:04;4.72;;;1.85;;
74658;SDS011;63186;51.204;6.536;2024-03-23T02:20:31;7.72;;;1.65;;
74658;SDS011;63186;51.204;6.536;2024-03-23T02:22:57;4.28;;;1.35;;
74658;SDS011;63186;51.204;6.536;2024-03-23T02:25:22;8.40;;;1.93;;
74658;SDS011;63186;51.204;6.536;2024-03-23T02:27:47;5.63;;;1.67;;
74658;SDS011;63186;51.204;6.536;2024-03-23T02:30:13;4.00;;;1.17;;
74658;SDS011;63186;51.204;6.536;2024-03-23T02:32:38;6.93;;;1.73;;
74658;SDS011;63186;51.204;6.536;2024-03-23T02:35:03;3.33;;;1.30;;
74658;SDS011;63186;51.204;6.536;2024-03-23T02:37:29;8.48;;;1.85;;
74658;SDS011;63186;51.204;6.536;2024-03-23T02:39:55;5.97;;;1.92;;
74658;SDS011;63186;51.204;6.536;2024-03-23T02:42:20;7.23;;;2.27;;
74658;SDS011;63186;51.204;6.536;2024-03-23T02:44:46;4.32;;;1.50;;
74658;SDS011;63186;51.204;6.536;2024-03-23T02:47:11;4.43;;;1.45;;
74658;SDS011;63186;51.204;6.536;2024-03-23T02:49:36;2.55;;;1.30;;
74658;SDS011;63186;51.204;6.536;2024-03-23T02:52:02;4.30;;;1.35;;
74658;SDS011;63186;51.204;6.536;2024-03-23T02:54:27;4.88;;;1.50;;
74658;SDS011;63186;51.204;6.536;2024-03-23T02:56:53;5.23;;;1.50;;
74658;SDS011;63186;51.204;6.536;2024-03-23T02:59:18;7.03;;;2.43;;
74658;SDS011;63186;51.204;6.536;2024-03-23T03:01:43;6.53;;;2.23;;
74658;SDS011;63186;51.204;6.536;2024-03-23T03:04:08;6.70;;;1.37;;
74658;SDS011;63186;51.204;6.536;2024-03-23T03:06:34;1.97;;;0.87;;
74658;SDS011;63186;51.204;6.536;2024-03-23T03:08:59;7.27;;;1.60;;
74658;SDS011;63186;51.204;6.536;2024-03-23T03:11:24;3.35;;;1.13;;
74658;SDS011;63186;51.204;6.536;2024-03-23T03:13:50;4.70;;;1.50;;
74658;SDS011;63186;51.204;6.536;2024-03-23T03:16:15;3.50;;;1.77;;
74658;SDS011;63186;51.204;6.536;2024-03-23T03:18:41;4.20;;;1.50;;
74658;SDS011;63186;51.204;6.536;2024-03-23T03:21:06;6.90;;;1.90;;
74658;SDS011;63186;51.204;6.536;2024-03-23T03:23:36;5.05;;;1.52;;
74658;SDS011;63186;51.204;6.536;2024-03-23T03:26:04;5.40;;;1.25;;
74658;SDS011;63186;51.204;6.536;2024-03-23T03:28:33;7.07;;;1.90;;
74658;SDS011;63186;51.204;6.536;2024-03-23T03:30:59;3.47;;;1.20;;
74658;SDS011;63186;51.204;6.536;2024-03-23T03:33:26;6.40;;;1.58;;
74658;SDS011;63186;51.204;6.536;2024-03-23T03:35:52;6.10;;;2.03;;
74658;SDS011;63186;51.204;6.536;2024-03-23T03:38:18;5.78;;;1.88;;
74658;SDS011;63186;51.204;6.536;2024-03-23T03:40:44;6.13;;;1.77;;
74658;SDS011;63186;51.204;6.536;2024-03-23T03:43:10;7.78;;;1.90;;
74658;SDS011;63186;51.204;6.536;2024-03-23T03:45:35;6.90;;;1.95;;
74658;SDS011;63186;51.204;6.536;2024-03-23T03:48:00;8.17;;;2.30;;
74658;SDS011;63186;51.204;6.536;2024-03-23T03:50:26;3.57;;;1.67;;
74658;SDS011;63186;51.204;6.536;2024-03-23T03:52:51;5.90;;;1.85;;
74658;SDS011;63186;51.204;6.536;2024-03-23T03:55:16;8.47;;;1.83;;
74658;SDS011;63186;51.204;6.536;2024-03-23T03:57:42;4.93;;;1.63;;
74658;SDS011;63186;51.204;6.536;2024-03-23T04:00:07;7.10;;;1.70;;
74658;SDS011;63186;51.204;6.536;2024-03-23T04:02:36;8.93;;;2.55;;
74658;SDS011;63186;51.204;6.536;2024-03-23T04:05:02;5.82;;;1.88;;
74658;SDS011;63186;51.204;6.536;2024-03-23T04:07:28;7.22;;;1.45;;
74658;SDS011;63186;51.204;6.536;2024-03-23T04:09:53;6.35;;;1.95;;
74658;SDS011;63186;51.204;6.536;2024-03-23T04:12:19;9.30;;;2.05;;
74658;SDS011;63186;51.204;6.536;2024-03-23T04:14:45;5.45;;;1.60;;
74658;SDS011;63186;51.204;6.536;2024-03-23T04:17:10;10.45;;;2.00;;
74658;SDS011;63186;51.204;6.536;2024-03-23T04:19:36;4.53;;;2.00;;
74658;SDS011;63186;51.204;6.536;2024-03-23T04:22:01;8.93;;;2.33;;
74658;SDS011;63186;51.204;6.536;2024-03-23T04:24:26;5.00;;;1.97;;
74658;SDS011;63186;51.204;6.536;2024-03-23T04:26:52;7.50;;;2.00;;
74658;SDS011;63186;51.204;6.536;2024-03-23T04:29:17;10.85;;;2.67;;
74658;SDS011;63186;51.204;6.536;2024-03-23T04:31:42;9.13;;;2.53;;
74658;SDS011;63186;51.204;6.536;2024-03-23T04:34:08;8.82;;;2.35;;
74658;SDS011;63186;51.204;6.536;2024-03-23T04:36:33;6.83;;;2.37;;
74658;SDS011;63186;51.204;6.536;2024-03-23T04:38:59;10.33;;;2.53;;
74658;SDS011;63186;51.204;6.536;2024-03-23T04:41:25;8.32;;;3.08;;
74658;SDS011;63186;51.204;6.536;2024-03-23T04:43:52;6.10;;;2.00;;
74658;SDS011;63186;51.204;6.536;2024-03-23T04:46:17;6.07;;;2.20;;
74658;SDS011;63186;51.204;6.536;2024-03-23T04:48:42;6.87;;;1.97;;
74658;SDS011;63186;51.204;6.536;2024-03-23T04:51:09;4.97;;;1.90;;
74658;SDS011;63186;51.204;6.536;2024-03-23T04:53:37;5.40;;;2.10;;
74658;SDS011;63186;51.204;6.536;2024-03-23T04:56:02;6.70;;;2.50;;
74658;SDS011;63186;51.204;6.536;2024-03-23T04:58:29;6.57;;;2.30;;
74658;SDS011;63186;51.204;6.536;2024-03-23T05:00:55;8.00;;;2.20;;
74658;SDS011;63186;51.204;6.536;2024-03-23T05:03:21;5.82;;;2.13;;
74658;SDS011;63186;51.204;6.536;2024-03-23T05:05:47;5.30;;;2.05;;
74658;SDS011;63186;51.204;6.536;2024-03-23T05:08:13;3.97;;;1.27;;
74658;SDS011;63186;51.204;6.536;2024-03-23T05:10:39;8.77;;;2.50;;
74658;SDS011;63186;51.204;6.536;2024-03-23T05:13:05;6.75;;;2.28;;
74658;SDS011;63186;51.204;6.536;2024-03-23T05:15:31;8.00;;;2.28;;
74658;SDS011;63186;51.204;6.536;2024-03-23T05:17:57;10.40;;;2.60;;
74658;SDS011;63186;51.204;6.536;2024-03-23T05:20:22;6.28;;;2.75;;
74658;SDS011;63186;51.204;6.536;2024-03-23T05:22:47;9.18;;;2.08;;
74658;SDS011;63186;51.204;6.536;2024-03-23T05:25:13;8.80;;;2.65;;
74658;SDS011;63186;51.204;6.536;2024-03-23T05:27:38;7.15;;;2.15;;
74658;SDS011;63186;51.204;6.536;2024-03-23T05:30:04;8.50;;;2.53;;
74658;SDS011;63186;51.204;6.536;2024-03-23T05:32:31;10.05;;;2.88;;
74658;SDS011;63186;51.204;6.536;2024-03-23T05:34:56;7.45;;;2.70;;
74658;SDS011;63186;51.204;6.536;2024-03-23T05:37:22;5.60;;;2.67;;
74658;SDS011;63186;51.204;6.536;2024-03-23T05:39:48;10.80;;;2.78;;
74658;SDS011;63186;51.204;6.536;2024-03-23T05:42:15;10.18;;;3.22;;
74658;SDS011;63186;51.204;6.536;2024-03-23T05:44:42;12.75;;;2.75;;
74658;SDS011;63186;51.204;6.536;2024-03-23T05:47:10;6.75;;;3.10;;
74658;SDS011;63186;51.204;6.536;2024-03-23T05:49:38;7.85;;;3.10;;
74658;SDS011;63186;51.204;6.536;2024-03-23T05:52:03;4.95;;;2.28;;
74658;SDS011;63186;51.204;6.536;2024-03-23T05:54:29;11.65;;;3.42;;
74658;SDS011;63186;51.204;6.536;2024-03-23T05:56:55;6.70;;;3.13;;
74658;SDS011;63186;51.204;6.536;2024-03-23T05:59:20;7.28;;;2.80;;
74658;SDS011;63186;51.204;6.536;2024-03-23T06:01:46;13.93;;;2.83;;
74658;SDS011;63186;51.204;6.536;2024-03-23T06:04:12;10.48;;;3.03;;
74658;SDS011;63186;51.204;6.536;2024-03-23T06:06:38;10.90;;;3.13;;
74658;SDS011;63186;51.204;6.536;2024-03-23T06:09:04;10.15;;;2.78;;
74658;SDS011;63186;51.204;6.536;2024-03-23T06:11:29;5.35;;;2.28;;
74658;SDS011;63186;51.204;6.536;2024-03-23T06:13:55;11.98;;;2.78;;
74658;SDS011;63186;51.204;6.536;2024-03-23T06:16:21;7.97;;;2.92;;
74658;SDS011;63186;51.204;6.536;2024-03-23T06:18:49;9.23;;;3.55;;
74658;SDS011;63186;51.204;6.536;2024-03-23T06:21:15;10.75;;;3.72;;
74658;SDS011;63186;51.204;6.536;2024-03-23T06:23:41;8.98;;;3.33;;
74658;SDS011;63186;51.204;6.536;2024-03-23T06:26:06;7.68;;;3.08;;
74658;SDS011;63186;51.204;6.536;2024-03-23T06:28:32;11.03;;;3.53;;
74658;SDS011;63186;51.204;6.536;2024-03-23T06:30:57;10.43;;;3.42;;
74658;SDS011;63186;51.204;6.536;2024-03-23T06:33:22;7.13;;;3.10;;
74658;SDS011;63186;51.204;6.536;2024-03-23T06:35:52;10.75;;;3.35;;
74658;SDS011;63186;51.204;6.536;2024-03-23T06:40:43;8.93;;;2.95;;
74658;SDS011;63186;51.204;6.536;2024-03-23T06:43:12;10.38;;;3.53;;
74658;SDS011;63186;51.204;6.536;2024-03-23T06:45:38;12.25;;;3.63;;
74658;SDS011;63186;51.204;6.536;2024-03-23T06:48:03;11.02;;;3.20;;
74658;SDS011;63186;51.204;6.536;2024-03-23T06:50:29;6.38;;;3.00;;
74658;SDS011;63186;51.204;6.536;2024-03-23T06:52:54;8.20;;;3.53;;
74658;SDS011;63186;51.204;6.536;2024-03-23T06:55:19;15.03;;;3.63;;
74658;SDS011;63186;51.204;6.536;2024-03-23T06:57:45;7.80;;;3.10;;
74658;SDS011;63186;51.204;6.536;2024-03-23T07:00:11;7.13;;;2.43;;
74658;SDS011;63186;51.204;6.536;2024-03-23T07:02:38;7.10;;;3.17;;
74658;SDS011;63186;51.204;6.536;2024-03-23T07:05:03;8.73;;;2.63;;
74658;SDS011;63186;51.204;6.536;2024-03-23T07:07:29;6.28;;;2.47;;
74658;SDS011;63186;51.204;6.536;2024-03-23T07:09:55;14.20;;;7.43;;
74658;SDS011;63186;51.204;6.536;2024-03-23T07:12:20;7.93;;;3.20;;
74658;SDS011;63186;51.204;6.536;2024-03-23T07:14:46;12.80;;;3.70;;
74658;SDS011;63186;51.204;6.536;2024-03-23T07:17:11;11.95;;;3.40;;
74658;SDS011;63186;51.204;6.536;2024-03-23T07:19:36;9.03;;;2.80;;
74658;SDS011;63186;51.204;6.536;2024-03-23T07:22:02;12.00;;;3.00;;
74658;SDS011;63186;51.204;6.536;2024-03-23T07:24:27;11.63;;;3.23;;
74658;SDS011;63186;51.204;6.536;2024-03-23T07:26:52;10.68;;;3.00;;
74658;SDS011;63186;51.204;6.536;2024-03-23T07:29:19;14.25;;;3.67;;
74658;SDS011;63186;51.204;6.536;2024-03-23T07:31:44;11.85;;;3.20;;
74658;SDS011;63186;51.204;6.536;2024-03-23T07:34:10;8.07;;;3.15;;
74658;SDS011;63186;51.204;6.536;2024-03-23T07:36:35;11.05;;;3.00;;
74658;SDS011;63186;51.204;6.536;2024-03-23T07:39:00;11.00;;;3.77;;
74658;SDS011;63186;51.204;6.536;2024-03-23T07:41:25;11.25;;;3.90;;
74658;SDS011;63186;51.204;6.536;2024-03-23T07:43:53;9.63;;;2.70;;
74658;SDS011;63186;51.204;6.536;2024-03-23T07:46:20;11.05;;;3.90;;
74658;SDS011;63186;51.204;6.536;2024-03-23T07:48:45;9.23;;;3.25;;
74658;SDS011;63186;51.204;6.536;2024-03-23T07:51:16;10.23;;;3.13;;
74658;SDS011;63186;51.204;6.536;2024-03-23T07:53:43;9.23;;;3.00;;
74658;SDS011;63186;51.204;6.536;2024-03-23T07:56:11;9.05;;;3.10;;
74658;SDS011;63186;51.204;6.536;2024-03-23T07:58:36;10.05;;;2.58;;
74658;SDS011;63186;51.204;6.536;2024-03-23T08:01:09;9.07;;;2.45;;
74658;SDS011;63186;51.204;6.536;2024-03-23T08:03:36;5.75;;;2.45;;
74658;SDS011;63186;51.204;6.536;2024-03-23T08:06:18;7.20;;;2.33;;
74658;SDS011;63186;51.204;6.536;2024-03-23T08:08:45;4.78;;;1.90;;
74658;SDS011;63186;51.204;6.536;2024-03-23T08:11:12;9.80;;;2.08;;
74658;SDS011;63186;51.204;6.536;2024-03-23T08:13:39;9.07;;;2.42;;
74658;SDS011;63186;51.204;6.536;2024-03-23T08:16:05;9.23;;;2.22;;
74658;SDS011;63186;51.204;6.536;2024-03-23T08:18:30;7.13;;;2.40;;
74658;SDS011;63186;51.204;6.536;2024-03-23T08:21:00;7.55;;;2.50;;
74658;SDS011;63186;51.204;6.536;2024-03-23T08:23:29;9.93;;;2.45;;
74658;SDS011;63186;51.204;6.536;2024-03-23T08:26:02;5.03;;;2.03;;
74658;SDS011;63186;51.204;6.536;2024-03-23T08:28:29;7.80;;;1.98;;
74658;SDS011;63186;51.204;6.536;2024-03-23T08:30:55;4.32;;;1.77;;
74658;SDS011;63186;51.204;6.536;2024-03-23T08:33:21;3.70;;;1.63;;
74658;SDS011;63186;51.204;6.536;2024-03-23T08:35:53;4.82;;;1.83;;
74658;SDS011;63186;51.204;6.536;2024-03-23T08:38:25;6.65;;;1.95;;
74658;SDS011;63186;51.204;6.536;2024-03-23T08:40:58;7.70;;;2.20;;
74658;SDS011;63186;51.204;6.536;2024-03-23T08:43:24;7.35;;;2.33;;
74658;SDS011;63186;51.204;6.536;2024-03-23T08:45:50;6.45;;;1.73;;
74658;SDS011;63186;51.204;6.536;2024-03-23T08:48:15;7.60;;;1.43;;
74658;SDS011;63186;51.204;6.536;2024-03-23T08:50:41;13.43;;;3.15;;
74658;SDS011;63186;51.204;6.536;2024-03-23T08:53:06;9.82;;;2.60;;
74658;SDS011;63186;51.204;6.536;2024-03-23T08:55:31;9.93;;;3.33;;
74658;SDS011;63186;51.204;6.536;2024-03-23T08:57:57;11.47;;;2.37;;
74658;SDS011;63186;51.204;6.536;2024-03-23T09:00:22;10.43;;;2.53;;
74658;SDS011;63186;51.204;6.536;2024-03-23T09:02:48;9.77;;;2.63;;
74658;SDS011;63186;51.204;6.536;2024-03-23T09:05:13;7.15;;;2.30;;
74658;SDS011;63186;51.204;6.536;2024-03-23T09:07:38;11.60;;;3.60;;
74658;SDS011;63186;51.204;6.536;2024-03-23T09:10:04;8.00;;;3.13;;
74658;SDS011;63186;51.204;6.536;2024-03-23T09:12:29;5.50;;;2.75;;
74658;SDS011;63186;51.204;6.536;2024-03-23T09:14:55;7.40;;;3.33;;
74658;SDS011;63186;51.204;6.536;2024-03-23T09:17:20;7.70;;;3.10;;
74658;SDS011;63186;51.204;6.536;2024-03-23T09:19:45;6.60;;;2.88;;
74658;SDS011;63186;51.204;6.536;2024-03-23T09:22:11;8.27;;;2.92;;
74658;SDS011;63186;51.204;6.536;2024-03-23T09:24:36;10.90;;;3.90;;
74658;SDS011;63186;51.204;6.536;2024-03-23T09:27:01;10.55;;;3.47;;
74658;SDS011;63186;51.204;6.536;2024-03-23T09:29:28;7.18;;;2.70;;
74658;SDS011;63186;51.204;6.536;2024-03-23T09:31:53;5.97;;;2.00;;
74658;SDS011;63186;51.204;6.536;2024-03-23T09:34:19;6.33;;;2.37;;
74658;SDS011;63186;51.204;6.536;2024-03-23T09:36:44;5.97;;;2.33;;
74658;SDS011;63186;51.204;6.536;2024-03-23T09:39:10;5.70;;;2.67;;
74658;SDS011;63186;51.204;6.536;2024-03-23T09:41:35;5.13;;;1.85;;
74658;SDS011;63186;51.204;6.536;2024-03-23T09:44:01;10.10;;;2.63;;
74658;SDS011;63186;51.204;6.536;2024-03-23T09:46:27;10.98;;;2.58;;
74658;SDS011;63186;51.204;6.536;2024-03-23T09:48:53;7.70;;;2.20;;
74658;SDS011;63186;51.204;6.536;2024-03-23T09:51:20;7.95;;;2.20;;
74658;SDS011;63186;51.204;6.536;2024-03-23T09:53:46;10.35;;;3.70;;
74658;SDS011;63186;51.204;6.536;2024-03-23T09:56:11;5.53;;;2.20;;
74658;SDS011;63186;51.204;6.536;2024-03-23T09:58:37;8.03;;;2.23;;
74658;SDS011;63186;51.204;6.536;2024-03-23T10:01:02;8.30;;;2.93;;
74658;SDS011;63186;51.204;6.536;2024-03-23T10:03:28;6.40;;;2.40;;
74658;SDS011;63186;51.204;6.536;2024-03-23T10:06:03;6.83;;;1.73;;
74658;SDS011;63186;51.204;6.536;2024-03-23T10:08:30;5.20;;;1.98;;
74658;SDS011;63186;51.204;6.536;2024-03-23T10:10:56;5.38;;;1.52;;
74658;SDS011;63186;51.204;6.536;2024-03-23T10:13:25;2.35;;;1.30;;
74658;SDS011;63186;51.204;6.536;2024-03-23T10:15:55;5.80;;;1.35;;
74658;SDS011;63186;51.204;6.536;2024-03-23T10:18:22;3.85;;;1.30;;
74658;SDS011;63186;51.204;6.536;2024-03-23T10:21:10;1.67;;;0.80;;
74658;SDS011;63186;51.204;6.536;2024-03-23T10:23:37;2.30;;;1.10;;
74658;SDS011;63186;51.204;6.536;2024-03-23T10:28:53;3.83;;;1.42;;
74658;SDS011;63186;51.204;6.536;2024-03-23T10:31:20;3.05;;;1.20;;
74658;SDS011;63186;51.204;6.536;2024-03-23T10:33:46;2.83;;;1.10;;
74658;SDS011;63186;51.204;6.536;2024-03-23T10:36:13;2.45;;;0.60;;
74658;SDS011;63186;51.204;6.536;2024-03-23T10:38:42;0.75;;;0.50;;
74658;SDS011;63186;51.204;6.536;2024-03-23T10:41:09;2.22;;;0.60;;
74658;SDS011;63186;51.204;6.536;2024-03-23T10:43:35;1.75;;;0.90;;
74658;SDS011;63186;51.204;6.536;2024-03-23T10:46:01;3.28;;;1.10;;
74658;SDS011;63186;51.204;6.536;2024-03-23T10:48:27;3.60;;;1.38;;
74658;SDS011;63186;51.204;6.536;2024-03-23T10:50:53;5.50;;;1.42;;
74658;SDS011;63186;51.204;6.536;2024-03-23T10:53:18;1.08;;;0.82;;
74658;SDS011;63186;51.204;6.536;2024-03-23T10:55:46;1.55;;;0.90;;
74658;SDS011;63186;51.204;6.536;2024-03-23T10:58:11;3.70;;;1.60;;
74658;SDS011;63186;51.204;6.536;2024-03-23T11:00:37;2.63;;;1.38;;
74658;SDS011;63186;51.204;6.536;2024-03-23T11:06:04;4.75;;;1.77;;
74658;SDS011;63186;51.204;6.536;2024-03-23T11:08:31;3.60;;;1.27;;
74658;SDS011;63186;51.204;6.536;2024-03-23T11:13:42;3.22;;;1.33;;
74658;SDS011;63186;51.204;6.536;2024-03-23T11:16:14;3.42;;;1.13;;
74658;SDS011;63186;51.204;6.536;2024-03-23T11:18:40;2.70;;;1.30;;
74658;SDS011;63186;51.204;6.536;2024-03-23T11:21:06;3.13;;;1.50;;
74658;SDS011;63186;51.204;6.536;2024-03-23T11:23:32;2.53;;;1.38;;
74658;SDS011;63186;51.204;6.536;2024-03-23T11:25:57;4.10;;;1.73;;
74658;SDS011;63186;51.204;6.536;2024-03-23T11:28:22;2.47;;;1.50;;
74658;SDS011;63186;51.204;6.536;2024-03-23T11:30:48;6.15;;;1.90;;
74658;SDS011;63186;51.204;6.536;2024-03-23T11:33:13;5.05;;;1.80;;
74658;SDS011;63186;51.204;6.536;2024-03-23T11:35:39;2.65;;;1.02;;
74658;SDS011;63186;51.204;6.536;2024-03-23T11:40:49;3.38;;;0.82;;
74658;SDS011;63186;51.204;6.536;2024-03-23T11:43:18;1.65;;;0.95;;
74658;SDS011;63186;51.204;6.536;2024-03-23T11:45:46;1.40;;;0.60;;
74658;SDS011;63186;51.204;6.536;2024-03-23T11:50:44;5.20;;;2.08;;
74658;SDS011;63186;51.204;6.536;2024-03-23T11:58:15;3.30;;;1.35;;
74658;SDS011;63186;51.204;6.536;2024-03-23T12:00:41;4.60;;;3.78;;
74658;SDS011;63186;51.204;6.536;2024-03-23T12:03:07;3.35;;;1.67;;
74658;SDS011;63186;51.204;6.536;2024-03-23T12:05:35;2.60;;;1.33;;
74658;SDS011;63186;51.204;6.536;2024-03-23T12:08:17;3.40;;;1.27;;
74658;SDS011;63186;51.204;6.536;2024-03-23T12:11:08;4.28;;;1.15;;
74658;SDS011;63186;51.204;6.536;2024-03-23T12:16:09;3.17;;;1.42;;
74658;SDS011;63186;51.204;6.536;2024-03-23T12:18:36;1.95;;;1.40;;
74658;SDS011;63186;51.204;6.536;2024-03-23T12:21:02;3.63;;;1.25;;
74658;SDS011;63186;51.204;6.536;2024-03-23T12:23:27;2.63;;;1.08;;
74658;SDS011;63186;51.204;6.536;2024-03-23T12:25:53;1.80;;;0.90;;
74658;SDS011;63186;51.204;6.536;2024-03-23T12:28:18;1.83;;;1.17;;
74658;SDS011;63186;51.204;6.536;2024-03-23T12:30:44;4.78;;;1.20;;
74658;SDS011;63186;51.204;6.536;2024-03-23T12:33:09;1.08;;;0.93;;
74658;SDS011;63186;51.204;6.536;2024-03-23T12:35:34;1.30;;;0.80;;
74658;SDS011;63186;51.204;6.536;2024-03-23T12:38:00;3.35;;;0.95;;
74658;SDS011;63186;51.204;6.536;2024-03-23T12:40:25;1.90;;;0.70;;
74658;SDS011;63186;51.204;6.536;2024-03-23T12:42:51;1.02;;;0.88;;
74658;SDS011;63186;51.204;6.536;2024-03-23T12:45:17;2.05;;;1.08;;
74658;SDS011;63186;51.204;6.536;2024-03-23T12:47:42;2.28;;;1.30;;
74658;SDS011;63186;51.204;6.536;2024-03-23T12:50:08;2.90;;;1.20;;
74658;SDS011;63186;51.204;6.536;2024-03-23T12:52:34;1.73;;;1.00;;
74658;SDS011;63186;51.204;6.536;2024-03-23T12:55:00;4.15;;;0.95;;
74658;SDS011;63186;51.204;6.536;2024-03-23T12:57:26;2.30;;;1.00;;
74658;SDS011;63186;51.204;6.536;2024-03-23T12:59:52;0.47;;;0.40;;
74658;SDS011;63186;51.204;6.536;2024-03-23T13:02:21;0.40;;;0.40;;
74658;SDS011;63186;51.204;6.536;2024-03-23T13:04:50;1.60;;;0.70;;
74658;SDS011;63186;51.204;6.536;2024-03-23T13:07:17;1.50;;;0.60;;
74658;SDS011;63186;51.204;6.536;2024-03-23T13:09:43;2.33;;;0.93;;
74658;SDS011;63186;51.204;6.536;2024-03-23T13:12:08;2.85;;;0.70;;
74658;SDS011;63186;51.204;6.536;2024-03-23T13:14:34;2.92;;;0.88;;
74658;SDS011;63186;51.204;6.536;2024-03-23T13:16:59;2.88;;;1.10;;
74658;SDS011;63186;51.204;6.536;2024-03-23T13:19:25;2.60;;;1.45;;
74658;SDS011;63186;51.204;6.536;2024-03-23T13:21:53;2.28;;;0.90;;
74658;SDS011;63186;51.204;6.536;2024-03-23T13:24:23;4.60;;;1.00;;
74658;SDS011;63186;51.204;6.536;2024-03-23T13:26:49;4.28;;;1.25;;
74658;SDS011;63186;51.204;6.536;2024-03-23T13:29:15;3.67;;;0.90;;
74658;SDS011;63186;51.204;6.536;2024-03-23T13:31:41;4.78;;;1.35;;
74658;SDS011;63186;51.204;6.536;2024-03-23T13:34:06;3.22;;;1.05;;
74658;SDS011;63186;51.204;6.536;2024-03-23T13:36:34;2.42;;;1.35;;
74658;SDS011;63186;51.204;6.536;2024-03-23T13:39:01;3.95;;;1.38;;
74658;SDS011;63186;51.204;6.536;2024-03-23T13:41:30;4.35;;;1.45;;
74658;SDS011;63186;51.204;6.536;2024-03-23T13:43:58;4.40;;;1.23;;
74658;SDS011;63186;51.204;6.536;2024-03-23T13:46:23;1.47;;;0.90;;
74658;SDS011;63186;51.204;6.536;2024-03-23T13:48:52;3.15;;;1.20;;
74658;SDS011;63186;51.204;6.536;2024-03-23T13:51:22;4.05;;;1.73;;
74658;SDS011;63186;51.204;6.536;2024-03-23T13:53:49;2.85;;;0.98;;
74658;SDS011;63186;51.204;6.536;2024-03-23T13:56:14;2.45;;;0.93;;
74658;SDS011;63186;51.204;6.536;2024-03-23T13:58:40;4.47;;;1.27;;
74658;SDS011;63186;51.204;6.536;2024-03-23T14:01:10;2.13;;;1.00;;
74658;SDS011;63186;51.204;6.536;2024-03-23T14:03:36;9.23;;;1.40;;
74658;SDS011;63186;51.204;6.536;2024-03-23T14:06:01;4.93;;;1.57;;
74658;SDS011;63186;51.204;6.536;2024-03-23T14:08:28;1.35;;;0.90;;
74658;SDS011;63186;51.204;6.536;2024-03-23T14:10:53;2.43;;;1.20;;
74658;SDS011;63186;51.204;6.536;2024-03-23T14:13:18;2.67;;;1.13;;
74658;SDS011;63186;51.204;6.536;2024-03-23T14:18:17;1.65;;;0.65;;
74658;SDS011;63186;51.204;6.536;2024-03-23T14:20:42;2.58;;;0.93;;
74658;SDS011;63186;51.204;6.536;2024-03-23T14:23:08;1.93;;;1.03;;
74658;SDS011;63186;51.204;6.536;2024-03-23T14:25:33;1.70;;;1.13;;
74658;SDS011;63186;51.204;6.536;2024-03-23T14:27:58;4.17;;;1.07;;
74658;SDS011;63186;51.204;6.536;2024-03-23T14:30:24;2.27;;;1.20;;
74658;SDS011;63186;51.204;6.536;2024-03-23T14:32:49;2.88;;;1.23;;
74658;SDS011;63186;51.204;6.536;2024-03-23T14:35:14;2.40;;;1.23;;
74658;SDS011;63186;51.204;6.536;2024-03-23T14:37:40;2.27;;;1.20;;
74658;SDS011;63186;51.204;6.536;2024-03-23T14:40:07;2.60;;;1.08;;
74658;SDS011;63186;51.204;6.536;2024-03-23T14:42:32;2.58;;;1.27;;
74658;SDS011;63186;51.204;6.536;2024-03-23T14:44:58;3.20;;;1.60;;
74658;SDS011;63186;51.204;6.536;2024-03-23T14:47:23;1.67;;;1.02;;
74658;SDS011;63186;51.204;6.536;2024-03-23T14:49:49;2.10;;;0.82;;
74658;SDS011;63186;51.204;6.536;2024-03-23T14:52:18;3.80;;;1.00;;
74658;SDS011;63186;51.204;6.536;2024-03-23T14:54:43;2.05;;;1.10;;
74658;SDS011;63186;51.204;6.536;2024-03-23T14:57:09;2.33;;;1.00;;
74658;SDS011;63186;51.204;6.536;2024-03-23T14:59:35;3.17;;;1.42;;
74658;SDS011;63186;51.204;6.536;2024-03-23T15:02:01;1.77;;;0.68;;
74658;SDS011;63186;51.204;6.536;2024-03-23T15:04:26;0.95;;;0.77;;
74658;SDS011;63186;51.204;6.536;2024-03-23T15:06:51;2.60;;;1.15;;
74658;SDS011;63186;51.204;6.536;2024-03-23T15:09:17;4.00;;;1.08;;
74658;SDS011;63186;51.204;6.536;2024-03-23T15:11:43;2.58;;;1.10;;
74658;SDS011;63186;51.204;6.536;2024-03-23T15:14:08;1.42;;;0.90;;
74658;SDS011;63186;51.204;6.536;2024-03-23T15:16:36;2.33;;;1.25;;
74658;SDS011;63186;51.204;6.536;2024-03-23T15:19:01;1.67;;;1.17;;
74658;SDS011;63186;51.204;6.536;2024-03-23T15:21:27;2.87;;;1.27;;
74658;SDS011;63186;51.204;6.536;2024-03-23T15:23:52;3.57;;;1.40;;
74658;SDS011;63186;51.204;6.536;2024-03-23T15:26:17;3.13;;;1.50;;
74658;SDS011;63186;51.204;6.536;2024-03-23T15:28:43;4.43;;;1.30;;
74658;SDS011;63186;51.204;6.536;2024-03-23T15:31:21;6.30;;;1.55;;
74658;SDS011;63186;51.204;6.536;2024-03-23T15:33:46;2.50;;;1.23;;
74658;SDS011;63186;51.204;6.536;2024-03-23T15:36:12;5.80;;;1.40;;
74658;SDS011;63186;51.204;6.536;2024-03-23T15:38:37;4.83;;;1.20;;
74658;SDS011;63186;51.204;6.536;2024-03-23T15:41:03;2.30;;;1.15;;
74658;SDS011;63186;51.204;6.536;2024-03-23T15:43:29;2.67;;;1.27;;
74658;SDS011;63186;51.204;6.536;2024-03-23T15:45:56;3.03;;;1.33;;
74658;SDS011;63186;51.204;6.536;2024-03-23T15:48:24;2.22;;;1.20;;
74658;SDS011;63186;51.204;6.536;2024-03-23T15:50:52;5.18;;;1.17;;
74658;SDS011;63186;51.204;6.536;2024-03-23T15:53:25;2.03;;;1.02;;
74658;SDS011;63186;51.204;6.536;2024-03-23T15:55:58;1.65;;;0.90;;
74658;SDS011;63186;51.204;6.536;2024-03-23T15:58:25;0.95;;;0.70;;